Time;durP1;ratioP1;P1;durP2;ratioP2;P2;SDS_P1;SDS_P2;PMS_P1;PMS_P2;Temp;Humidity;BMP_temperature;BMP_pressure;BME280_temperature;BME280_humidity;BME280_pressure;Samples;Min_cycle;Max_cycle;Signal;HPM_P1;HPM_P2
2021/07/24 01:04:20;;;;;;;12.50;10.53;;;15.70;99.90;;;;;;6184042;22;1316443;-74
2021/07/24 01:06:50;;;;;;;12.03;10.73;;;15.70;99.90;;;;;;6192371;23;20481;-74
2021/07/24 01:09:18;;;;;;;14.70;11.47;;;15.60;99.90;;;;;;6192189;23;20427;-74
2021/07/24 01:11:47;;;;;;;14.97;12.20;;;15.60;99.90;;;;;;6192175;23;20724;-74
2021/07/24 01:14:16;;;;;;;14.03;12.57;;;15.50;99.90;;;;;;6192260;23;20488;-74
2021/07/24 01:16:45;;;;;;;17.73;11.00;;;15.50;99.90;;;;;;6192243;23;20924;-74
2021/07/24 01:19:23;;;;;;;11.97;10.77;;;15.50;99.90;;;;;;6192046;23;20390;-74
2021/07/24 01:21:53;;;;;;;17.40;12.33;;;15.40;99.90;;;;;;6192196;23;20413;-74
2021/07/24 01:24:23;;;;;;;15.03;12.60;;;15.40;99.90;;;;;;6192318;23;20382;-74
2021/07/24 01:26:53;;;;;;;12.37;10.47;;;15.40;99.90;;;;;;6192191;23;20945;-74
2021/07/24 01:29:22;;;;;;;15.27;11.90;;;15.40;99.90;;;;;;6203797;23;20406;-74
2021/07/24 01:31:56;;;;;;;12.37;11.07;;;15.40;99.90;;;;;;6192087;23;20271;-74
2021/07/24 01:34:25;;;;;;;17.17;11.40;;;15.40;99.90;;;;;;6192148;23;20861;-74
2021/07/24 01:36:55;;;;;;;14.67;11.60;;;15.30;99.90;;;;;;6191942;23;20409;-74
2021/07/24 01:39:24;;;;;;;13.63;12.20;;;15.30;99.90;;;;;;6193932;23;20369;-74
2021/07/24 01:41:55;;;;;;;14.67;11.07;;;15.30;99.90;;;;;;6191918;23;20453;-74
2021/07/24 01:44:25;;;;;;;14.60;10.90;;;15.20;99.90;;;;;;6192107;23;20890;-75
2021/07/24 01:46:54;;;;;;;16.10;11.47;;;15.20;99.90;;;;;;6192053;23;20412;-75
2021/07/24 01:52:50;;;;;;;15.00;11.20;;;15.20;99.90;;;;;;6185239;23;20440;-74
2021/07/24 01:55:23;;;;;;;13.53;10.67;;;15.10;99.90;;;;;;6185177;23;20391;-75
2021/07/24 01:58:01;;;;;;;12.97;11.00;;;15.10;99.90;;;;;;6185063;23;20410;-74
2021/07/24 02:00:41;;;;;;;15.50;12.10;;;15.10;99.90;;;;;;6186120;23;20417;-74
2021/07/24 02:03:27;;;;;;;15.13;11.90;;;15.00;99.90;;;;;;6184038;23;20411;-75
2021/07/24 02:06:25;;;;;;;18.13;12.97;;;15.10;99.90;;;;;;6156653;23;20408;-75
2021/07/24 02:09:30;;;;;;;14.50;12.20;;;15.10;99.90;;;;;;6181733;23;20393;-74
2021/07/24 02:12:07;;;;;;;15.13;11.20;;;15.20;99.90;;;;;;6185195;23;20220;-74
2021/07/24 02:14:45;;;;;;;13.97;11.33;;;15.10;99.90;;;;;;6185200;23;20502;-75
2021/07/24 02:17:32;;;;;;;15.57;11.10;;;15.10;99.90;;;;;;6184939;23;20408;-74
2021/07/24 02:20:05;;;;;;;14.23;11.20;;;15.00;99.90;;;;;;6185363;23;20412;-74
2021/07/24 02:22:34;;;;;;;15.27;11.37;;;15.00;99.90;;;;;;6185123;23;20713;-75
2021/07/24 02:25:05;;;;;;;13.43;10.60;;;15.00;99.90;;;;;;6184895;23;20420;-75
2021/07/24 02:27:35;;;;;;;16.30;12.53;;;14.90;99.90;;;;;;6185667;23;20386;-74
2021/07/24 02:30:05;;;;;;;14.10;10.10;;;14.90;99.90;;;;;;6196999;23;20699;-74
2021/07/24 02:32:34;;;;;;;16.00;12.00;;;14.80;99.90;;;;;;6185081;23;20869;-74
2021/07/24 02:35:02;;;;;;;14.37;11.47;;;14.80;99.90;;;;;;6185220;23;20416;-75
2021/07/24 02:37:33;;;;;;;17.17;12.70;;;14.80;99.90;;;;;;6185353;23;20713;-75
2021/07/24 02:40:01;;;;;;;16.73;12.83;;;14.80;99.90;;;;;;6185162;23;20415;-74
2021/07/24 02:42:32;;;;;;;14.50;12.00;;;14.70;99.90;;;;;;6183442;23;20398;-75
2021/07/24 02:45:00;;;;;;;15.23;12.37;;;14.80;99.90;;;;;;6186416;23;20157;-74
2021/07/24 02:47:29;;;;;;;14.40;11.30;;;14.80;99.90;;;;;;6184669;23;20416;-75
2021/07/24 02:49:57;;;;;;;16.60;13.00;;;14.80;99.90;;;;;;6184710;23;20949;-75
2021/07/24 02:52:26;;;;;;;15.83;11.80;;;14.70;99.90;;;;;;6196120;23;20462;-74
2021/07/24 02:54:55;;;;;;;13.20;11.27;;;14.70;99.90;;;;;;6185046;23;20419;-74
2021/07/24 02:57:23;;;;;;;20.10;12.63;;;14.70;99.90;;;;;;6186150;23;20445;-74
2021/07/24 02:59:53;;;;;;;13.70;11.60;;;14.60;99.90;;;;;;6198767;23;20367;-74
2021/07/24 03:02:21;;;;;;;15.73;11.77;;;14.60;99.90;;;;;;6186561;23;20960;-74
2021/07/24 03:04:51;;;;;;;14.03;11.83;;;14.60;99.90;;;;;;6196306;23;20412;-75
2021/07/24 03:07:19;;;;;;;19.07;13.97;;;14.60;99.90;;;;;;6186428;23;20525;-74
2021/07/24 03:09:48;;;;;;;17.87;14.77;;;14.60;99.90;;;;;;6186141;23;20383;-74
2021/07/24 03:12:17;;;;;;;15.90;13.47;;;14.60;99.90;;;;;;6196263;23;20425;-75
2021/07/24 03:14:46;;;;;;;16.73;13.98;;;14.50;99.90;;;;;;6184887;23;20841;-74
2021/07/24 03:17:15;;;;;;;16.07;12.40;;;14.60;99.90;;;;;;6159532;23;20200;-75
2021/07/24 03:19:44;;;;;;;18.47;14.67;;;14.60;99.90;;;;;;6187042;23;20763;-75
2021/07/24 03:22:12;;;;;;;14.40;11.20;;;14.60;99.90;;;;;;6196207;23;20769;-75
2021/07/24 03:24:40;;;;;;;18.50;12.43;;;14.60;99.90;;;;;;6195910;23;20948;-74
2021/07/24 03:27:09;;;;;;;17.87;13.03;;;14.50;99.90;;;;;;6159865;23;20507;-75
2021/07/24 03:29:37;;;;;;;16.20;12.47;;;14.50;99.90;;;;;;6186283;23;20439;-74
2021/07/24 03:32:06;;;;;;;15.40;12.40;;;14.50;99.90;;;;;;6196118;23;20403;-74
2021/07/24 03:34:35;;;;;;;19.93;14.97;;;14.50;99.90;;;;;;6159231;23;20387;-75
2021/07/24 03:37:04;;;;;;;15.60;12.33;;;14.50;99.90;;;;;;6159431;23;20420;-74
2021/07/24 03:39:33;;;;;;;17.60;12.83;;;14.50;99.90;;;;;;6159297;23;20449;-75
2021/07/24 03:42:02;;;;;;;16.37;12.87;;;14.40;99.90;;;;;;6195738;23;20418;-74
2021/07/24 03:44:30;;;;;;;18.50;15.03;;;14.40;99.90;;;;;;6186138;23;20424;-74
2021/07/24 03:46:58;;;;;;;14.97;13.03;;;14.40;99.90;;;;;;6159351;23;20407;-74
2021/07/24 03:49:27;;;;;;;18.58;14.98;;;14.40;99.90;;;;;;6195155;23;20730;-74
2021/07/24 03:51:56;;;;;;;16.30;12.77;;;14.50;99.90;;;;;;6195762;23;20229;-74
2021/07/24 03:54:24;;;;;;;17.50;13.30;;;14.50;99.90;;;;;;6159720;23;20423;-75
2021/07/24 03:56:52;;;;;;;14.00;12.03;;;14.50;99.90;;;;;;6159444;23;20479;-74
2021/07/24 03:59:20;;;;;;;17.67;13.27;;;14.50;99.90;;;;;;6185833;23;20444;-75
2021/07/24 04:01:51;;;;;;;17.70;13.60;;;14.40;99.90;;;;;;6183668;23;20474;-74
2021/07/24 04:04:20;;;;;;;19.60;14.43;;;14.50;99.90;;;;;;6160594;23;20487;-75
2021/07/24 04:06:50;;;;;;;17.67;13.27;;;14.50;99.90;;;;;;6183927;23;20379;-75
2021/07/24 04:09:21;;;;;;;19.67;14.60;;;14.40;99.90;;;;;;6195845;23;20842;-74
2021/07/24 04:11:50;;;;;;;17.97;13.40;;;14.50;99.90;;;;;;6195485;23;20437;-75
2021/07/24 04:14:19;;;;;;;16.47;13.77;;;14.40;99.90;;;;;;6185580;23;20410;-74
2021/07/24 04:16:47;;;;;;;18.23;12.70;;;14.40;99.90;;;;;;6185528;23;20902;-74
2021/07/24 04:19:15;;;;;;;19.15;15.20;;;14.50;99.90;;;;;;6183693;23;20406;-74
2021/07/24 04:21:43;;;;;;;19.20;13.07;;;14.50;99.90;;;;;;6195123;23;20524;-74
2021/07/24 04:24:12;;;;;;;22.70;15.07;;;14.50;99.90;;;;;;6183224;23;20410;-75
2021/07/24 04:26:42;;;;;;;19.50;14.00;;;14.50;99.90;;;;;;6185490;23;20176;-75
2021/07/24 04:29:10;;;;;;;22.60;15.23;;;14.50;99.90;;;;;;6183870;23;20412;-74
2021/07/24 04:31:38;;;;;;;18.97;13.73;;;14.50;99.90;;;;;;6208833;23;20413;-75
2021/07/24 04:34:06;;;;;;;18.23;14.00;;;14.50;99.90;;;;;;6183924;23;20401;-75
2021/07/24 04:36:34;;;;;;;19.60;13.00;;;14.50;99.90;;;;;;6183939;23;20710;-74
2021/07/24 04:39:03;;;;;;;19.47;14.83;;;14.50;99.90;;;;;;6183931;23;20523;-74
2021/07/24 04:41:31;;;;;;;23.47;14.27;;;14.50;99.90;;;;;;6183928;23;20819;-74
2021/07/24 04:44:00;;;;;;;19.13;16.40;;;14.60;99.90;;;;;;6195426;23;20934;-74
2021/07/24 04:46:28;;;;;;;18.80;15.60;;;14.60;99.90;;;;;;6184244;23;20416;-74
2021/07/24 04:48:56;;;;;;;23.83;14.73;;;14.60;99.90;;;;;;6195399;23;20459;-74
2021/07/24 04:51:24;;;;;;;20.13;14.87;;;14.60;99.90;;;;;;6195315;23;20422;-75
2021/07/24 04:53:55;;;;;;;18.80;14.90;;;14.60;99.90;;;;;;6183742;23;20787;-74
2021/07/24 04:56:27;;;;;;;16.00;13.53;;;14.60;99.90;;;;;;6195745;23;20391;-74
2021/07/24 04:58:55;;;;;;;19.73;13.03;;;14.60;99.90;;;;;;6183678;23;20563;-74
2021/07/24 05:01:25;;;;;;;18.47;14.50;;;14.60;99.90;;;;;;6195257;23;20419;-74
2021/07/24 05:03:53;;;;;;;18.47;14.50;;;14.60;99.90;;;;;;6195182;23;20403;-74
2021/07/24 05:06:21;;;;;;;20.07;14.30;;;14.70;99.90;;;;;;6159006;23;20409;-74
2021/07/24 05:08:49;;;;;;;18.70;15.67;;;14.70;99.90;;;;;;6185701;23;20391;-74
2021/07/24 05:11:18;;;;;;;18.93;15.10;;;14.70;99.90;;;;;;6185463;23;20503;-74
2021/07/24 05:13:46;;;;;;;19.67;14.90;;;14.70;99.90;;;;;;6158816;23;20418;-74
2021/07/24 05:16:15;;;;;;;20.07;14.93;;;14.80;99.90;;;;;;6185508;23;20412;-74
2021/07/24 05:18:44;;;;;;;21.40;14.87;;;14.80;99.90;;;;;;6158816;23;20407;-74
2021/07/24 05:21:16;;;;;;;18.87;14.23;;;14.80;99.90;;;;;;6195103;23;20390;-74
2021/07/24 05:23:44;;;;;;;17.30;13.67;;;14.80;99.90;;;;;;6195841;23;20837;-74
2021/07/24 05:26:14;;;;;;;18.17;13.90;;;14.90;99.90;;;;;;6197117;23;20374;-74
2021/07/24 05:28:43;;;;;;;19.77;14.27;;;14.90;99.90;;;;;;6197502;23;20468;-74
2021/07/24 05:31:17;;;;;;;19.20;16.40;;;14.90;99.90;;;;;;6196423;23;20409;-74
2021/07/24 05:33:50;;;;;;;16.00;13.07;;;15.00;99.90;;;;;;6160546;23;20491;-74
2021/07/24 05:36:18;;;;;;;22.00;15.73;;;15.00;99.90;;;;;;6186821;23;20455;-74
2021/07/24 05:38:46;;;;;;;19.40;15.93;;;15.10;99.90;;;;;;6187219;23;20443;-72
2021/07/24 05:41:14;;;;;;;17.03;14.20;;;15.10;99.90;;;;;;6196918;23;20495;-73
2021/07/24 05:43:42;;;;;;;16.47;13.80;;;15.20;99.90;;;;;;6160549;23;20480;-73
2021/07/24 05:46:10;;;;;;;17.23;13.93;;;15.20;99.90;;;;;;6196633;23;20707;-73
2021/07/24 05:48:38;;;;;;;16.80;14.07;;;15.30;99.90;;;;;;6187201;23;20726;-73
2021/07/24 05:51:08;;;;;;;21.50;15.03;;;15.40;99.90;;;;;;6160399;23;20500;-73
2021/07/24 05:53:36;;;;;;;19.83;13.60;;;15.60;99.90;;;;;;6197474;23;20706;-73
2021/07/24 05:56:05;;;;;;;17.53;13.53;;;15.80;99.90;;;;;;6160350;23;20750;-73
2021/07/24 05:58:33;;;;;;;20.57;14.00;;;16.00;99.90;;;;;;6185230;23;20394;-73
2021/07/24 06:01:01;;;;;;;14.50;12.30;;;16.20;99.90;;;;;;6196651;23;20390;-73
2021/07/24 06:03:29;;;;;;;15.63;12.83;;;16.50;99.90;;;;;;6197268;23;20435;-72
2021/07/24 06:05:57;;;;;;;12.33;11.17;;;16.70;99.90;;;;;;6196509;23;20437;-74
2021/07/24 06:08:27;;;;;;;13.15;11.80;;;16.90;99.90;;;;;;6186564;23;20397;-72
2021/07/24 06:10:59;;;;;;;12.33;11.03;;;17.20;99.90;;;;;;6196506;23;20231;-72
2021/07/24 06:13:27;;;;;;;12.40;11.10;;;17.50;99.90;;;;;;6195741;23;20516;-72
2021/07/24 06:15:55;;;;;;;12.43;10.73;;;17.80;99.90;;;;;;6160170;23;20403;-72
2021/07/24 06:18:23;;;;;;;11.10;9.93;;;18.00;99.90;;;;;;6160094;23;20754;-72
2021/07/24 06:20:52;;;;;;;10.20;9.20;;;18.20;99.90;;;;;;6196442;23;20440;-72
2021/07/24 06:23:20;;;;;;;15.77;10.77;;;18.50;99.90;;;;;;6160219;23;20466;-72
2021/07/24 06:25:50;;;;;;;11.43;9.73;;;18.70;99.90;;;;;;6184969;23;20978;-73
2021/07/24 06:28:18;;;;;;;10.57;9.47;;;18.90;99.90;;;;;;6196833;23;20427;-74
2021/07/24 06:30:47;;;;;;;12.73;9.93;;;19.10;99.90;;;;;;6159974;23;20446;-73
2021/07/24 06:33:15;;;;;;;11.93;10.73;;;19.30;99.90;;;;;;6196447;23;20400;-74
2021/07/24 06:35:43;;;;;;;10.60;9.30;;;19.50;99.90;;;;;;6196403;23;20400;-74
2021/07/24 06:38:12;;;;;;;10.90;9.80;;;19.60;99.90;;;;;;6197107;23;20700;-73
2021/07/24 06:40:40;;;;;;;12.43;10.40;;;19.80;99.90;;;;;;6194753;23;20494;-73
2021/07/24 06:43:09;;;;;;;11.90;10.13;;;20.10;99.90;;;;;;6196757;23;20244;-73
2021/07/24 06:45:38;;;;;;;10.60;9.60;;;20.30;99.90;;;;;;6195347;23;20435;-73
2021/07/24 06:48:07;;;;;;;10.27;9.23;;;20.50;99.90;;;;;;6196406;23;20175;-73
2021/07/24 06:50:36;;;;;;;13.43;9.67;;;20.60;99.90;;;;;;6196496;23;20422;-73
2021/07/24 06:53:04;;;;;;;10.20;8.57;;;20.80;99.90;;;;;;6159944;23;20407;-72
2021/07/24 06:55:32;;;;;;;11.53;10.10;;;21.00;99.90;;;;;;6196000;23;20482;-73
2021/07/24 06:58:02;;;;;;;10.27;8.90;;;21.20;99.90;;;;;;6196206;23;20482;-73
2021/07/24 07:00:32;;;;;;;10.40;9.27;;;21.40;99.90;;;;;;6186553;23;20499;-73
2021/07/24 07:03:01;;;;;;;9.80;8.47;;;21.50;99.90;;;;;;6196443;23;20898;-73
2021/07/24 07:05:32;;;;;;;8.57;7.70;;;21.60;99.90;;;;;;6186077;23;20424;-73
2021/07/24 07:08:00;;;;;;;10.27;8.77;;;21.80;99.90;;;;;;6196084;23;20451;-74
2021/07/24 07:10:28;;;;;;;9.43;8.47;;;21.90;99.90;;;;;;6196201;23;20416;-73
2021/07/24 07:12:58;;;;;;;9.67;8.70;;;21.90;99.90;;;;;;6196449;23;20431;-74
2021/07/24 07:15:27;;;;;;;9.67;8.80;;;22.00;99.90;;;;;;6159594;23;20516;-73
2021/07/24 07:17:57;;;;;;;8.53;7.73;;;22.10;99.90;;;;;;6159519;23;20411;-73
2021/07/24 07:20:25;;;;;;;10.53;9.43;;;22.20;99.90;;;;;;6195823;23;20427;-74
2021/07/24 07:22:55;;;;;;;9.40;8.43;;;22.30;99.90;;;;;;6186237;23;20443;-75
2021/07/24 07:25:23;;;;;;;8.97;8.07;;;22.40;99.90;;;;;;6159253;23;20456;-75
2021/07/24 07:27:52;;;;;;;9.80;8.90;;;22.50;99.90;;;;;;6159381;23;20890;-74
2021/07/24 07:30:20;;;;;;;8.07;7.40;;;22.60;99.90;;;;;;6159271;23;20898;-75
2021/07/24 07:32:48;;;;;;;8.40;7.67;;;22.70;99.90;;;;;;6195948;23;20482;-75
2021/07/24 07:35:18;;;;;;;8.63;7.73;;;22.80;99.90;;;;;;6196073;23;20404;-75
2021/07/24 07:37:48;;;;;;;7.97;7.17;;;22.90;99.90;;;;;;6159535;23;20965;-76
2021/07/24 07:40:17;;;;;;;8.83;7.93;;;23.00;99.90;;;;;;6195946;23;20416;-75
2021/07/24 07:42:45;;;;;;;8.33;7.37;;;23.00;99.90;;;;;;6195690;23;20391;-76
2021/07/24 07:45:18;;;;;;;8.33;7.10;;;23.00;99.90;;;;;;6159054;23;20506;-77
2021/07/24 07:47:51;;;;;;;8.27;7.47;;;23.00;99.90;;;;;;6195920;23;20380;-77
2021/07/24 07:50:21;;;;;;;10.37;8.30;;;23.10;99.90;;;;;;6194411;23;20408;-74
2021/07/24 07:52:49;;;;;;;8.93;7.97;;;23.30;99.90;;;;;;6159184;23;20447;-75
2021/07/24 07:55:17;;;;;;;9.93;7.93;;;23.30;99.90;;;;;;6195460;23;20427;-75
2021/07/24 07:57:45;;;;;;;8.80;7.93;;;23.40;99.90;;;;;;6195632;23;20399;-75
2021/07/24 08:00:15;;;;;;;8.03;7.23;;;23.40;99.90;;;;;;6159295;23;20431;-74
2021/07/24 08:02:44;;;;;;;11.53;9.40;;;23.40;99.90;;;;;;6195578;23;20392;-75
2021/07/24 08:05:12;;;;;;;7.27;6.57;;;23.50;99.90;;;;;;6196239;23;20418;-76
2021/07/24 08:07:53;;;;;;;6.93;6.33;;;23.50;99.90;;;;;;6197780;23;20422;-77
2021/07/24 08:10:22;;;;;;;7.20;6.53;;;23.70;99.90;;;;;;6196257;23;20434;-74
2021/07/24 08:12:52;;;;;;;8.07;7.27;;;23.80;99.90;;;;;;6185691;23;20482;-76
2021/07/24 08:15:21;;;;;;;8.80;7.30;;;23.90;99.90;;;;;;6194832;23;20434;-76
2021/07/24 08:17:49;;;;;;;7.60;6.50;;;24.00;99.90;;;;;;6195399;23;20247;-76
2021/07/24 08:20:17;;;;;;;7.13;6.43;;;24.10;99.90;;;;;;6195385;23;20933;-76
2021/07/24 08:22:46;;;;;;;7.57;6.77;;;24.10;99.90;;;;;;6185680;23;20407;-76
2021/07/24 08:25:14;;;;;;;6.30;5.70;;;24.20;99.90;;;;;;6185423;23;20419;-76
2021/07/24 08:27:43;;;;;;;6.77;6.10;;;24.20;99.90;;;;;;6158996;23;20538;-74
2021/07/24 08:30:12;;;;;;;6.60;6.00;;;24.20;99.90;;;;;;6195099;23;20935;-73
2021/07/24 08:32:42;;;;;;;8.83;7.37;;;24.30;99.90;;;;;;6195458;23;20400;-74
2021/07/24 08:35:11;;;;;;;6.57;5.70;;;24.40;99.90;;;;;;6195623;23;20384;-73
2021/07/24 08:37:40;;;;;;;6.03;5.40;;;24.50;99.90;;;;;;6195045;23;20454;-74
2021/07/24 08:40:12;;;;;;;7.13;5.37;;;24.50;99.90;;;;;;6194839;23;20530;-73
2021/07/24 08:42:41;;;;;;;6.60;5.90;;;24.50;99.90;;;;;;6158805;23;20485;-74
2021/07/24 08:45:11;;;;;;;6.83;6.10;;;24.60;99.90;;;;;;6195154;23;20243;-73
2021/07/24 08:47:39;;;;;;;7.47;6.87;;;24.70;99.90;;;;;;6158975;23;20416;-74
2021/07/24 08:50:10;;;;;;;6.20;5.60;;;24.70;99.90;;;;;;6185520;23;20441;-73
2021/07/24 08:52:39;;;;;;;7.17;6.47;;;24.80;99.90;;;;;;6195415;23;20415;-73
2021/07/24 08:55:10;;;;;;;6.70;6.10;;;24.80;99.80;;;;;;6195362;23;20724;-73
2021/07/24 08:57:43;;;;;;;6.60;5.97;;;24.80;99.90;;;;;;6160174;23;20415;-72
2021/07/24 09:00:13;;;;;;;6.67;5.50;;;24.90;99.90;;;;;;6198228;23;20384;-73
2021/07/24 09:02:43;;;;;;;5.90;5.40;;;25.00;99.90;;;;;;6187804;23;20446;-72
2021/07/24 09:05:12;;;;;;;6.03;5.43;;;25.10;99.90;;;;;;6197372;23;20805;-72
2021/07/24 09:07:42;;;;;;;6.90;6.20;;;25.20;99.70;;;;;;6187433;23;20411;-72
2021/07/24 09:10:12;;;;;;;8.37;5.37;;;25.20;99.40;;;;;;6197352;23;20454;-72
2021/07/24 09:12:42;;;;;;;8.77;5.93;;;25.20;99.30;;;;;;6161052;23;20414;-73
2021/07/24 09:15:13;;;;;;;7.07;5.77;;;25.30;99.30;;;;;;6197016;23;20438;-73
2021/07/24 09:17:42;;;;;;;7.13;6.43;;;25.30;99.30;;;;;;6196439;23;20394;-73
2021/07/24 09:20:11;;;;;;;7.07;6.47;;;25.40;98.30;;;;;;6197571;23;20601;-75
2021/07/24 09:22:41;;;;;;;6.67;6.00;;;25.40;98.20;;;;;;6187553;23;20766;-76
2021/07/24 09:25:14;;;;;;;8.00;6.00;;;25.30;98.10;;;;;;6197144;23;20391;-76
2021/07/24 09:27:44;;;;;;;5.77;5.20;;;25.30;98.20;;;;;;6160829;23;20403;-77
2021/07/24 12:50:16;;;;;;;9.17;8.27;;;27.50;94.10;;;;;;6007169;23;20203;-78
2021/07/24 12:52:47;;;;;;;10.13;8.40;;;27.60;94.00;;;;;;6085420;23;20434;-78
2021/07/24 12:55:18;;;;;;;9.77;8.30;;;27.60;94.00;;;;;;6129652;23;20420;-77
2021/07/24 12:57:47;;;;;;;9.40;8.60;;;27.60;94.00;;;;;;6156002;23;20405;-78
2021/07/24 13:00:18;;;;;;;8.37;7.57;;;27.60;94.00;;;;;;6129345;23;20451;-78
2021/07/24 13:02:48;;;;;;;8.48;7.68;;;27.60;93.90;;;;;;6129054;23;20403;-78
2021/07/24 13:05:18;;;;;;;9.13;8.33;;;27.70;93.80;;;;;;6129391;23;20165;-78
2021/07/24 13:07:51;;;;;;;11.10;10.00;;;27.80;94.00;;;;;;6129424;23;20903;-78
2021/07/24 13:10:19;;;;;;;10.38;9.38;;;27.90;94.00;;;;;;6155429;23;20512;-78
2021/07/24 13:12:47;;;;;;;10.70;9.70;;;28.00;93.50;;;;;;6129433;23;20173;-78
2021/07/24 13:15:15;;;;;;;12.10;9.77;;;28.00;93.60;;;;;;6129682;23;20455;-78
2021/07/24 13:17:43;;;;;;;10.30;9.30;;;28.00;93.50;;;;;;6129559;23;20452;-78
2021/07/24 13:20:14;;;;;;;10.50;9.37;;;28.00;93.40;;;;;;6129216;23;20761;-78
2021/07/24 13:22:42;;;;;;;11.17;10.27;;;28.00;93.40;;;;;;6129677;23;20521;-77
2021/07/24 13:25:42;;;;;;;10.47;9.57;;;28.10;93.40;;;;;;6129413;23;20413;-78
2021/07/24 13:28:17;;;;;;;9.73;8.90;;;28.00;93.20;;;;;;6128979;23;20424;-78
2021/07/24 13:30:47;;;;;;;10.57;9.67;;;28.00;93.10;;;;;;6129530;23;20267;-78
2021/07/24 13:33:15;;;;;;;10.80;9.80;;;28.00;93.00;;;;;;6129431;23;20478;-78
2021/07/24 13:35:46;;;;;;;10.70;9.70;;;28.00;93.00;;;;;;6129532;23;20412;-78
2021/07/24 13:38:15;;;;;;;9.30;8.57;;;28.00;93.00;;;;;;6155864;23;20459;-78
2021/07/24 13:40:46;;;;;;;10.43;9.53;;;27.90;93.00;;;;;;6130078;23;20468;-78
2021/07/24 13:43:14;;;;;;;10.23;9.33;;;27.90;93.00;;;;;;6129450;23;20436;-78
2021/07/24 13:45:42;;;;;;;10.90;8.87;;;27.80;93.10;;;;;;6131113;23;20911;-78
2021/07/24 13:48:10;;;;;;;9.50;8.60;;;27.80;93.30;;;;;;6126594;23;20953;-78
2021/07/24 13:50:42;;;;;;;10.40;9.13;;;27.90;93.30;;;;;;6126011;23;20477;-77
2021/07/24 13:53:12;;;;;;;11.00;10.00;;;27.90;93.20;;;;;;6125771;23;20414;-77
2021/07/24 13:55:40;;;;;;;11.17;10.07;;;28.00;92.90;;;;;;6126250;23;20580;-77
2021/07/24 13:58:09;;;;;;;11.57;10.47;;;28.00;92.90;;;;;;6126046;23;20508;-78
2021/07/24 14:00:37;;;;;;;10.43;9.53;;;28.10;93.10;;;;;;6125366;23;20477;-78
2021/07/24 14:03:06;;;;;;;9.80;8.80;;;28.10;92.90;;;;;;6126394;23;20524;-78
2021/07/24 14:05:34;;;;;;;13.00;10.07;;;28.10;93.00;;;;;;6137718;23;20405;-78
2021/07/24 14:08:02;;;;;;;12.13;9.90;;;28.10;92.90;;;;;;6128009;23;20417;-78
2021/07/24 14:10:32;;;;;;;10.90;9.30;;;28.20;93.00;;;;;;6125965;23;20444;-78
2021/07/24 14:13:00;;;;;;;11.50;10.50;;;28.20;93.00;;;;;;6126575;23;20424;-78
2021/07/24 14:15:29;;;;;;;12.23;11.10;;;28.20;93.00;;;;;;6126158;23;20784;-78
2021/07/24 14:17:57;;;;;;;11.27;10.27;;;28.20;92.90;;;;;;6125990;23;20473;-77
2021/07/24 14:20:29;;;;;;;9.93;9.03;;;28.20;92.80;;;;;;6127013;23;20205;-78
2021/07/24 14:22:58;;;;;;;10.70;9.57;;;28.20;92.70;;;;;;6126585;23;20441;-78
2021/07/24 14:25:28;;;;;;;11.10;9.93;;;28.20;92.70;;;;;;6137104;23;20446;-78
2021/07/24 14:27:58;;;;;;;10.83;9.80;;;28.20;92.70;;;;;;6125815;23;20205;-77
2021/07/24 14:30:26;;;;;;;11.10;10.10;;;28.20;92.70;;;;;;6125690;23;20939;-77
2021/07/24 14:33:04;;;;;;;11.73;10.67;;;28.20;92.70;;;;;;6125643;23;20556;-78
2021/07/24 14:35:34;;;;;;;11.90;10.80;;;28.20;92.80;;;;;;6125604;23;20422;-77
2021/07/24 14:38:03;;;;;;;10.97;9.97;;;28.20;92.80;;;;;;6125776;23;20440;-77
2021/07/24 14:40:31;;;;;;;11.13;10.03;;;28.20;92.80;;;;;;6125698;23;20483;-77
2021/07/24 14:43:01;;;;;;;11.70;10.60;;;28.20;92.80;;;;;;6125329;23;20478;-77
2021/07/24 14:45:31;;;;;;;10.97;9.97;;;28.20;92.70;;;;;;6127191;23;20193;-77
2021/07/24 14:47:59;;;;;;;10.60;9.60;;;28.20;92.70;;;;;;6125323;23;20520;-78
2021/07/24 14:50:27;;;;;;;11.45;10.45;;;28.20;92.70;;;;;;6125185;23;20493;-77
2021/07/24 14:52:57;;;;;;;11.13;10.23;;;28.20;92.50;;;;;;6137620;23;20234;-77
2021/07/24 14:55:29;;;;;;;12.50;11.30;;;28.20;92.50;;;;;;6125830;23;20433;-77
2021/07/24 14:57:57;;;;;;;12.87;11.57;;;28.20;92.50;;;;;;6125850;23;20425;-77
2021/07/24 15:00:26;;;;;;;11.10;10.07;;;28.20;92.50;;;;;;6125553;23;20432;-77
2021/07/24 15:02:54;;;;;;;11.63;10.63;;;28.20;92.40;;;;;;6125721;23;21017;-77
2021/07/24 15:05:23;;;;;;;12.60;11.23;;;28.20;92.50;;;;;;6127338;23;20409;-77
2021/07/24 15:07:52;;;;;;;12.40;11.30;;;28.20;92.50;;;;;;6124389;23;20426;-77
2021/07/24 15:10:20;;;;;;;12.00;10.90;;;28.30;92.40;;;;;;6125892;23;20194;-77
2021/07/24 15:12:54;;;;;;;12.10;10.90;;;28.30;92.50;;;;;;6125596;23;20405;-77
2021/07/24 15:15:22;;;;;;;11.05;10.05;;;28.30;92.50;;;;;;6124436;23;20414;-77
2021/07/24 15:17:54;;;;;;;12.10;11.00;;;28.40;92.20;;;;;;6125575;23;20177;-77
2021/07/24 15:20:22;;;;;;;11.43;10.37;;;28.40;92.20;;;;;;6136797;23;20441;-77
2021/07/24 15:22:50;;;;;;;11.10;10.07;;;28.40;92.30;;;;;;6125322;23;20444;-77
2021/07/24 15:25:18;;;;;;;13.93;11.67;;;28.40;92.40;;;;;;6125358;23;20445;-77
2021/07/24 15:27:47;;;;;;;11.50;10.53;;;28.30;92.30;;;;;;6125614;23;20426;-77
2021/07/24 15:30:15;;;;;;;11.33;10.33;;;28.40;92.40;;;;;;6125402;23;20896;-78
2021/07/24 15:32:43;;;;;;;11.93;10.80;;;28.30;92.40;;;;;;6125801;23;20489;-78
2021/07/24 15:35:13;;;;;;;12.20;11.10;;;28.30;92.40;;;;;;6125589;23;20452;-78
2021/07/24 15:37:41;;;;;;;11.67;10.63;;;28.30;92.50;;;;;;6127093;23;20398;-77
2021/07/24 15:40:11;;;;;;;12.87;11.77;;;28.30;92.40;;;;;;6137310;23;20773;-78
2021/07/24 15:42:44;;;;;;;12.70;11.40;;;28.20;92.40;;;;;;6125599;23;20579;-78
2021/07/24 15:45:12;;;;;;;14.00;10.37;;;28.20;92.30;;;;;;6125384;23;20734;-78
2021/07/24 15:47:40;;;;;;;11.90;10.93;;;28.20;92.30;;;;;;6125068;23;20936;-78
2021/07/24 15:50:10;;;;;;;11.40;10.50;;;28.20;92.40;;;;;;6136676;23;20405;-78
2021/07/24 15:52:42;;;;;;;11.33;10.33;;;28.20;92.40;;;;;;6124816;23;20468;-78
2021/07/24 15:55:11;;;;;;;11.85;10.82;;;28.20;92.40;;;;;;6137436;23;20446;-79
2021/07/24 15:57:39;;;;;;;12.30;11.10;;;28.20;92.50;;;;;;6137151;23;20169;-77
2021/07/24 16:00:08;;;;;;;11.53;10.53;;;28.20;92.50;;;;;;6126898;23;20421;-78
2021/07/24 16:02:39;;;;;;;12.90;11.80;;;28.20;92.40;;;;;;6136691;23;20354;-78
2021/07/24 16:05:09;;;;;;;12.03;11.03;;;28.20;92.50;;;;;;6124983;23;20182;-78
2021/07/24 16:07:38;;;;;;;12.80;11.33;;;28.10;92.50;;;;;;6125399;23;20471;-77
2021/07/24 16:10:09;;;;;;;11.17;10.10;;;28.10;92.60;;;;;;6126273;23;20437;-79
2021/07/24 16:12:38;;;;;;;12.83;11.70;;;28.10;92.60;;;;;;6128668;23;20746;-79
2021/07/24 16:15:24;;;;;;;12.33;11.17;;;28.10;92.70;;;;;;6129091;23;20702;-79
2021/07/24 16:17:53;;;;;;;11.60;10.60;;;28.10;93.00;;;;;;6130214;23;20746;-78
2021/07/24 16:20:24;;;;;;;12.57;11.52;;;28.10;92.70;;;;;;6126994;23;20414;-79
2021/07/24 16:22:54;;;;;;;12.03;11.03;;;28.10;92.60;;;;;;6128634;23;20600;-79
2021/07/24 16:25:22;;;;;;;31.90;29.67;;;28.10;92.60;;;;;;6140037;23;20401;-79
2021/07/24 16:27:50;;;;;;;15.50;14.20;;;28.10;92.70;;;;;;6138810;23;20406;-79
2021/07/24 16:30:19;;;;;;;17.73;16.33;;;28.10;92.60;;;;;;6129044;23;20204;-79
2021/07/24 16:32:47;;;;;;;19.30;17.70;;;28.10;92.60;;;;;;6128229;23;20413;-79
2021/07/24 16:35:15;;;;;;;26.13;24.23;;;28.10;92.70;;;;;;6127580;23;20477;-77
2021/07/24 16:37:45;;;;;;;17.70;16.30;;;28.10;92.80;;;;;;6136647;23;20607;-78
2021/07/24 16:40:15;;;;;;;12.80;11.70;;;28.10;92.90;;;;;;6126091;23;20421;-78
2021/07/24 16:42:43;;;;;;;12.50;11.43;;;28.10;93.00;;;;;;6126026;23;20745;-77
2021/07/24 16:45:12;;;;;;;13.05;11.95;;;28.10;93.00;;;;;;6135846;23;20402;-79
2021/07/24 16:47:40;;;;;;;12.30;11.30;;;28.20;92.90;;;;;;6125481;23;20185;-78
2021/07/24 16:50:11;;;;;;;14.47;13.27;;;28.20;92.90;;;;;;6126141;23;20744;-77
2021/07/24 16:52:39;;;;;;;13.90;12.70;;;28.10;92.90;;;;;;6124523;23;20484;-76
2021/07/24 16:55:09;;;;;;;11.90;10.80;;;28.20;92.90;;;;;;6136335;23;20177;-77
2021/07/24 16:57:40;;;;;;;13.70;12.50;;;28.20;92.90;;;;;;6125938;23;20432;-78
2021/07/24 17:00:09;;;;;;;13.17;11.97;;;28.10;93.00;;;;;;6124830;23;20452;-76
2021/07/24 17:02:38;;;;;;;23.83;22.03;;;28.10;93.10;;;;;;6125514;23;20455;-75
2021/07/24 17:05:07;;;;;;;16.23;14.93;;;28.00;93.50;;;;;;6126050;23;20417;-77
2021/07/24 17:07:39;;;;;;;13.50;12.30;;;28.00;93.30;;;;;;6125669;23;20413;-76
2021/07/24 17:10:08;;;;;;;16.93;15.53;;;28.00;93.40;;;;;;6124322;23;20417;-76
2021/07/24 17:12:38;;;;;;;12.03;10.80;;;28.10;93.30;;;;;;6125674;23;20804;-76